KDHT

Dalhart Municipal Airport

Dalhart, Texas, USA
METAR KDHT 261253Z AUTO 18003KT 10SM CLR 16/13 A2996 RMK AO2 SLP087 T01610128
Observed Flight Rules
May-26 @ 12:53 UTC (39 minutes ago) Visual Flight Rules
Wind Visibility Clouds
180° at 3 knots 10 miles
  • Clear skies
Temperatures Readings
Current 16°C / 61°F
Dewpoint 13°C / 55°F
Humidity 83%
Altimeter 29.96" Hg
Pressure 1008.7 hPa
Elevation 1217
METAR KDHT 261253Z AUTO 18003KT 10SM CLR 16/13 A2996 RMK AO2 SLP087 T01610128
Observed Flight Rules
May-26 @ 12:53 UTC
(39 minutes ago)
VFR
Wind Visibility
180° at 3 knots 10 miles
Clouds
  • Clear skies
Temperature Dewpoint
16°C / 61°F 13°C / 55°F
Humidity Altimeter Pressure
83% 29.96" Hg 1008.7 hPa